Holiday Shores, Illinois
Current Conditions -  °F | °C
As of 2:35 AM on Saturday 20 Dec 2014 (Local Time) from KALN Reporting Station
Overcast Overcast  
Wind Chill: 33°   Ceiling: 4900
Heat Index: 33°   Visibility: 7mi
Dew Point: 29°   Wind: 3mph
Humidity: 84%   Direction: 80°E
Pressure: 30.27"   Gusts: NA
Location:  38.8031°N, 89.9742°W
Report Text: KALN 200835Z AUTO 08003KT 7SM SCT030 SCT035 OVC049 01/M02 A3027 RMK AO2 T00071017
Loading
Personal Weather Stations






























Interactive Weather Map New forecast layout! Learn more

10-Day Weather Forecast

Advertisements
Track Severe Weather on mobile